Time;durP1;ratioP1;P1;durP2;ratioP2;P2;SDS_P1;SDS_P2;PMS_P1;PMS_P2;Temp;Humidity;BMP_temperature;BMP_pressure;BME280_temperature;BME280_humidity;BME280_pressure;Samples;Min_cycle;Max_cycle;Signal;HPM_P1;HPM_P2
2023/07/26 00:02:24;;;;;;;17.27;7.88;;;;;;;27.43;53.01;94116.19;5011578;28;20230;-80
2023/07/26 00:04:50;;;;;;;21.33;7.68;;;;;;;27.51;52.50;94125.34;4990547;28;20299;-77
2023/07/26 00:07:15;;;;;;;19.90;8.40;;;;;;;27.38;53.21;94108.31;4996464;28;20305;-78
2023/07/26 00:09:41;;;;;;;20.65;8.38;;;;;;;27.61;53.02;94109.59;5016420;28;20242;-80
2023/07/26 00:12:07;;;;;;;21.55;7.82;;;;;;;27.68;52.96;94123.31;4999031;28;20269;-78
2023/07/26 00:14:33;;;;;;;21.77;7.90;;;;;;;27.72;52.63;94116.19;4988981;28;20253;-78
2023/07/26 00:16:58;;;;;;;18.15;7.50;;;;;;;27.82;52.45;94105.03;4990945;28;20719;-77
2023/07/26 00:19:24;;;;;;;19.00;7.97;;;;;;;27.82;52.81;94094.28;5012510;28;20230;-77
2023/07/26 00:21:50;;;;;;;17.92;7.80;;;;;;;27.75;53.22;94109.38;5026044;28;20265;-79
2023/07/26 00:24:16;;;;;;;20.45;8.07;;;;;;;27.62;53.65;94095.06;4995893;28;20308;-77
2023/07/26 00:26:41;;;;;;;19.85;7.68;;;;;;;27.44;54.44;94090.91;4981730;28;21137;-77
2023/07/26 00:29:07;;;;;;;25.33;7.50;;;;;;;27.44;55.20;94100.88;5010617;28;20231;-80
2023/07/26 00:31:33;;;;;;;16.77;7.50;;;;;;;27.41;54.95;94113.06;5010485;28;20234;-78
2023/07/26 00:33:59;;;;;;;22.23;7.80;;;;;;;27.48;54.58;94105.25;4980607;28;20227;-77
2023/07/26 00:36:24;;;;;;;19.80;7.70;;;;;;;27.43;54.73;94099.28;4970395;28;20761;-76
2023/07/26 00:38:50;;;;;;;24.25;7.93;;;;;;;27.38;54.55;94106.41;5007407;28;20703;-78
2023/07/26 00:41:16;;;;;;;19.60;7.35;;;;;;;27.00;55.97;94086.00;4979789;28;20234;-75
2023/07/26 00:43:41;;;;;;;22.45;7.60;;;;;;;27.18;55.87;94092.88;4998432;28;20230;-80
2023/07/26 00:46:07;;;;;;;20.63;7.53;;;;;;;27.00;56.10;94092.19;4984200;28;20258;-77
2023/07/26 00:48:34;;;;;;;21.40;7.32;;;;;;;27.20;55.77;94102.19;4998725;28;20226;-78
2023/07/26 00:51:00;;;;;;;22.00;7.32;;;;;;;26.97;57.07;94078.59;4987624;28;20265;-77
2023/07/26 00:53:25;;;;;;;16.95;7.60;;;;;;;27.10;56.88;94085.66;4982348;28;20265;-78
2023/07/26 00:55:51;;;;;;;19.25;7.70;;;;;;;27.32;56.03;94085.41;5014692;28;20230;-78
2023/07/26 00:58:17;;;;;;;16.95;7.40;;;;;;;27.41;55.97;94091.56;4980564;28;20237;-80
2023/07/26 01:00:44;;;;;;;18.58;7.85;;;;;;;27.17;56.13;94075.19;5004545;28;20231;-76
2023/07/26 01:03:10;;;;;;;18.77;7.93;;;;;;;27.26;56.24;94084.00;4992186;28;20416;-77
2023/07/26 01:05:43;;;;;;;16.98;7.82;;;;;;;26.94;57.69;94076.56;4992232;28;20697;-79
2023/07/26 01:08:44;;;;;;;18.02;7.78;;;;;;;27.13;57.35;94085.78;5006500;28;20747;-78
2023/07/26 01:11:33;;;;;;;19.88;7.88;;;;;;;27.30;56.93;94091.09;4988801;28;20243;-79
2023/07/26 01:14:08;;;;;;;19.77;7.70;;;;;;;27.20;58.10;94061.13;4997729;28;20238;-77
2023/07/26 01:16:34;;;;;;;19.42;7.47;;;;;;;27.24;58.21;94081.66;5003129;28;20230;-78
2023/07/26 01:19:00;;;;;;;19.35;7.65;;;;;;;27.26;58.89;94076.72;5018478;28;20241;-76
2023/07/26 01:21:30;;;;;;;14.75;7.15;;;;;;;27.23;59.02;94081.94;5008043;28;20237;-79
2023/07/26 01:23:55;;;;;;;16.30;7.60;;;;;;;27.31;59.05;94071.16;5015135;28;20233;-77
2023/07/26 01:26:22;;;;;;;18.75;7.70;;;;;;;27.02;60.12;94048.84;5032701;28;20302;-77
2023/07/26 01:28:48;;;;;;;19.17;8.00;;;;;;;27.13;60.46;94066.97;5011780;28;20240;-79
2023/07/26 01:31:14;;;;;;;20.30;7.70;;;;;;;27.22;60.20;94067.75;5014496;28;20234;-77
2023/07/26 01:33:39;;;;;;;23.52;7.82;;;;;;;26.84;61.31;94050.84;5019149;28;20662;-77
2023/07/26 01:36:05;;;;;;;15.02;7.55;;;;;;;27.00;60.69;94056.47;5000974;28;20877;-78
2023/07/26 01:38:30;;;;;;;19.77;8.20;;;;;;;27.04;60.95;94068.13;5015853;28;20226;-79
2023/07/26 01:40:56;;;;;;;14.05;7.63;;;;;;;27.02;60.68;94052.34;5015196;28;20255;-77
2023/07/26 01:43:22;;;;;;;16.58;7.75;;;;;;;26.90;61.33;94027.25;5031536;28;20296;-77
2023/07/26 01:45:47;;;;;;;21.63;7.80;;;;;;;26.84;61.95;94042.00;5026733;28;20234;-78
2023/07/26 01:48:13;;;;;;;17.25;7.60;;;;;;;26.88;61.56;94035.66;5009914;28;20915;-78
2023/07/26 01:50:39;;;;;;;22.55;8.30;;;;;;;26.80;62.23;94033.03;5015737;28;20233;-77
2023/07/26 01:53:05;;;;;;;17.55;7.40;;;;;;;26.58;63.49;94029.41;5017663;28;20314;-77
2023/07/26 01:55:30;;;;;;;19.90;7.35;;;;;;;26.60;63.93;94032.59;4999418;28;20229;-76
2023/07/26 01:57:56;;;;;;;18.20;7.68;;;;;;;26.71;63.59;94031.09;4997957;28;20233;-78
2023/07/26 02:00:22;;;;;;;17.90;7.57;;;;;;;26.78;63.29;94035.22;5014647;28;20234;-78
2023/07/26 02:02:48;;;;;;;15.10;7.82;;;;;;;26.47;64.21;94019.34;5019506;28;20647;-78
2023/07/26 02:05:15;;;;;;;15.80;7.72;;;;;;;26.72;63.46;94046.09;5044441;28;20241;-80
2023/07/26 02:07:40;;;;;;;23.20;7.72;;;;;;;26.59;63.88;94033.69;4998891;28;20253;-77
2023/07/26 02:10:06;;;;;;;17.23;7.93;;;;;;;26.66;63.51;94031.28;5023136;28;20234;-82
2023/07/26 02:12:32;;;;;;;18.17;7.78;;;;;;;26.67;63.80;94024.81;5022931;28;20226;-78
2023/07/26 02:14:59;;;;;;;20.33;7.22;;;;;;;26.41;64.68;94008.00;5030057;28;20241;-79
2023/07/26 02:17:24;;;;;;;21.27;7.88;;;;;;;26.62;64.01;94030.34;4994293;28;20244;-78
2023/07/26 02:19:50;;;;;;;17.30;7.80;;;;;;;26.15;65.73;93995.75;5036217;28;20226;-77
2023/07/26 02:22:16;;;;;;;18.63;7.53;;;;;;;26.57;63.87;94038.59;5002893;28;20230;-81
2023/07/26 02:24:42;;;;;;;19.88;7.90;;;;;;;26.72;62.60;94031.91;5014193;28;20241;-78
2023/07/26 02:27:09;;;;;;;25.55;8.02;;;;;;;26.58;62.98;94042.81;5019412;28;20232;-81
2023/07/26 02:29:34;;;;;;;17.65;7.95;;;;;;;26.60;62.75;94050.56;4991631;28;20240;-79
2023/07/26 02:32:00;;;;;;;20.15;7.70;;;;;;;26.46;63.27;94031.19;5032784;28;20232;-77
2023/07/26 02:34:26;;;;;;;17.52;7.72;;;;;;;26.66;62.51;94035.84;4996440;28;20290;-77
2023/07/26 02:36:51;;;;;;;18.00;7.68;;;;;;;26.49;63.05;94027.84;5014580;28;20232;-77
2023/07/26 02:39:18;;;;;;;19.60;7.90;;;;;;;26.41;63.66;94029.47;4992003;28;20234;-79
2023/07/26 02:41:44;;;;;;;16.48;7.95;;;;;;;26.53;63.23;94050.28;5020615;28;20282;-78
2023/07/26 02:44:09;;;;;;;19.70;8.25;;;;;;;25.97;65.07;94019.88;5038623;28;20665;-77
2023/07/26 02:46:35;;;;;;;17.92;7.55;;;;;;;26.17;64.25;94031.88;5019912;28;20233;-77
2023/07/26 02:49:00;;;;;;;15.45;7.80;;;;;;;26.11;65.00;94022.41;5019452;28;20225;-77
2023/07/26 02:51:26;;;;;;;18.05;7.82;;;;;;;26.30;63.76;94052.38;5030337;28;20233;-80
2023/07/26 02:53:52;;;;;;;18.42;7.85;;;;;;;26.46;63.00;94050.75;5006783;28;20618;-77
2023/07/26 02:56:18;;;;;;;21.77;7.90;;;;;;;26.48;63.25;94059.31;5033658;28;20232;-77
2023/07/26 02:58:43;;;;;;;17.05;7.90;;;;;;;26.35;63.82;94075.56;5030684;28;20224;-78
2023/07/26 03:01:09;;;;;;;15.27;7.78;;;;;;;26.15;64.50;94074.34;5019436;28;20313;-77
2023/07/26 03:03:34;;;;;;;19.17;7.97;;;;;;;26.27;64.09;94063.72;5032720;28;20237;-77
2023/07/26 03:06:00;;;;;;;19.27;8.23;;;;;;;26.44;63.03;94073.69;5016345;28;20244;-79
2023/07/26 03:08:26;;;;;;;23.05;8.40;;;;;;;26.49;63.31;94081.53;5031309;28;20248;-80
2023/07/26 03:10:51;;;;;;;20.23;8.20;;;;;;;26.30;64.09;94073.84;5037265;28;21062;-78
2023/07/26 03:13:17;;;;;;;18.42;8.00;;;;;;;25.91;65.61;94061.34;5018839;28;20670;-77
2023/07/26 03:15:43;;;;;;;18.50;7.80;;;;;;;25.99;65.48;94057.09;5014822;28;20256;-78
2023/07/26 03:18:09;;;;;;;17.08;8.13;;;;;;;26.13;65.10;94073.09;5002562;28;20296;-80
2023/07/26 03:20:34;;;;;;;14.65;8.55;;;;;;;26.39;64.49;94089.94;5024150;28;20234;-79
2023/07/26 03:23:00;;;;;;;20.13;8.40;;;;;;;26.20;65.22;94066.09;4990577;28;20234;-78
2023/07/26 03:25:26;;;;;;;17.42;8.38;;;;;;;26.07;65.99;94057.13;5025131;28;20260;-78
2023/07/26 03:27:51;;;;;;;19.70;8.73;;;;;;;26.22;65.25;94090.75;5023851;28;20672;-78
2023/07/26 03:30:17;;;;;;;21.42;8.88;;;;;;;26.27;65.54;94069.09;5010524;28;20226;-76
2023/07/26 03:32:43;;;;;;;22.98;8.43;;;;;;;26.16;65.78;94075.91;4994799;28;20751;-79
2023/07/26 03:35:08;;;;;;;19.23;8.20;;;;;;;26.13;66.16;94084.56;5009556;28;20227;-76
2023/07/26 03:37:34;;;;;;;18.52;8.48;;;;;;;26.11;66.39;94080.63;5007470;28;20234;-78
2023/07/26 03:40:00;;;;;;;18.85;8.82;;;;;;;26.17;66.26;94082.06;4994263;28;20646;-79
2023/07/26 03:42:25;;;;;;;26.88;8.82;;;;;;;26.13;66.59;94084.56;4993598;28;20261;-77
2023/07/26 03:44:52;;;;;;;17.27;8.38;;;;;;;25.73;68.14;94075.88;4985969;28;20332;-77
2023/07/26 03:47:17;;;;;;;16.45;8.40;;;;;;;25.92;67.58;94081.72;5013444;28;20229;-78
2023/07/26 03:49:43;;;;;;;21.23;7.90;;;;;;;26.06;66.90;94085.03;5007492;28;21238;-78
2023/07/26 03:52:09;;;;;;;18.35;8.55;;;;;;;26.07;67.07;94101.91;4975927;28;20264;-78
2023/07/26 03:54:34;;;;;;;21.13;8.75;;;;;;;25.65;68.88;94086.59;4975793;28;20260;-76
2023/07/26 03:57:00;;;;;;;22.73;8.77;;;;;;;25.95;68.08;94078.41;4997718;28;20632;-77
2023/07/26 03:59:26;;;;;;;21.52;8.63;;;;;;;26.03;67.54;94063.44;4992281;28;20247;-80
2023/07/26 04:01:52;;;;;;;22.95;8.52;;;;;;;26.03;68.39;94090.25;4995782;28;21092;-79
2023/07/26 04:04:18;;;;;;;20.40;9.18;;;;;;;25.96;68.28;94096.06;4996700;28;20713;-77
2023/07/26 04:06:43;;;;;;;16.83;8.25;;;;;;;25.61;70.06;94080.28;5009620;28;20238;-77
2023/07/26 04:09:09;;;;;;;21.45;8.25;;;;;;;25.76;69.47;94093.22;4977837;28;20230;-78
2023/07/26 04:11:35;;;;;;;20.40;8.57;;;;;;;26.09;68.26;94092.47;4987993;28;20250;-79
2023/07/26 04:14:01;;;;;;;21.67;8.88;;;;;;;26.11;68.42;94099.41;5005058;28;20254;-78
2023/07/26 04:16:29;;;;;;;19.23;9.07;;;;;;;26.28;68.30;94102.09;4976096;28;20241;-76
2023/07/26 04:18:55;;;;;;;16.15;8.77;;;;;;;26.22;68.88;94114.91;5004962;28;20382;-79
2023/07/26 04:21:21;;;;;;;20.73;8.93;;;;;;;26.05;69.30;94096.88;5011461;28;20720;-77
2023/07/26 04:23:46;;;;;;;19.20;8.95;;;;;;;26.19;68.83;94095.94;5007862;28;20309;-79
2023/07/26 04:26:12;;;;;;;23.65;8.82;;;;;;;26.36;68.31;94096.72;4982816;28;20244;-79
2023/07/26 04:28:39;;;;;;;20.70;9.02;;;;;;;26.24;68.95;94091.22;5016562;28;20244;-76
2023/07/26 04:31:05;;;;;;;20.05;8.88;;;;;;;26.11;69.40;94115.50;5027792;28;20222;-78
2023/07/26 04:33:31;;;;;;;24.63;9.10;;;;;;;26.14;69.92;94091.53;5012104;28;20309;-77
2023/07/26 04:35:57;;;;;;;18.58;9.13;;;;;;;26.24;69.16;94088.53;4997896;28;20326;-79
2023/07/26 04:38:24;;;;;;;24.20;8.82;;;;;;;26.37;68.67;94076.81;5031277;28;20238;-76
2023/07/26 04:40:50;;;;;;;22.35;9.35;;;;;;;26.48;68.36;94096.88;5000436;28;20241;-77
2023/07/26 04:43:21;;;;;;;17.10;8.65;;;;;;;26.55;67.59;94085.66;5002941;28;20236;-78
2023/07/26 04:45:51;;;;;;;23.13;9.43;;;;;;;26.54;68.08;94079.47;5017377;28;20887;-79
2023/07/26 04:48:17;;;;;;;22.60;10.00;;;;;;;26.69;68.08;94046.75;5035352;28;20226;-78
2023/07/26 04:50:43;;;;;;;23.15;8.75;;;;;;;26.73;67.50;94081.78;5026420;28;20250;-79
2023/07/26 04:53:10;;;;;;;22.48;9.25;;;;;;;26.72;66.42;94105.16;5027030;28;20328;-79
2023/07/26 04:55:44;;;;;;;24.80;9.40;;;;;;;26.63;67.15;94063.34;5009385;28;20321;-77
2023/07/26 04:58:09;;;;;;;20.70;9.52;;;;;;;26.83;67.12;94060.00;5027257;28;20245;-78
2023/07/26 05:00:41;;;;;;;25.52;9.82;;;;;;;26.94;66.98;94109.56;5032321;28;20273;-80
2023/07/26 05:03:09;;;;;;;21.88;9.20;;;;;;;26.86;67.23;94082.75;5014460;28;20646;-76
2023/07/26 05:05:35;;;;;;;27.92;11.93;;;;;;;26.67;67.98;94032.88;5015955;28;20244;-79
2023/07/26 05:08:01;;;;;;;22.35;9.50;;;;;;;26.94;66.96;94049.69;5022162;28;20229;-81
2023/07/26 05:10:26;;;;;;;19.17;9.45;;;;;;;27.15;65.40;94097.03;5032809;28;20317;-82
2023/07/26 05:12:52;;;;;;;23.42;9.25;;;;;;;27.18;65.72;94074.84;5033202;28;20226;-81
2023/07/26 05:15:18;;;;;;;26.65;10.48;;;;;;;27.27;65.98;94059.47;5016707;28;20261;-81
2023/07/26 05:17:44;;;;;;;26.58;9.18;;;;;;;27.32;65.20;94088.84;5010950;28;20253;-79
2023/07/26 05:20:11;;;;;;;28.75;12.70;;;;;;;27.32;64.45;94066.59;5012391;28;20230;-81
2023/07/26 05:22:36;;;;;;;23.80;10.07;;;;;;;27.43;64.46;94086.63;4990412;28;20337;-80
2023/07/26 05:25:02;;;;;;;24.17;9.05;;;;;;;27.43;62.91;94067.81;4993400;28;20239;-80
2023/07/26 05:27:28;;;;;;;23.65;8.57;;;;;;;27.58;63.17;94059.19;5016507;28;20261;-81
2023/07/26 05:29:54;;;;;;;23.48;8.77;;;;;;;27.87;62.47;94086.03;4995769;28;20245;-81
2023/07/26 05:32:20;;;;;;;20.27;9.10;;;;;;;27.79;62.41;94068.06;5029301;28;20229;-82
2023/07/26 05:34:46;;;;;;;23.27;8.32;;;;;;;27.97;62.05;94047.16;4993637;28;20231;-81
2023/07/26 05:37:11;;;;;;;22.88;8.80;;;;;;;27.87;61.44;94055.66;5010364;28;20248;-81
2023/07/26 05:39:37;;;;;;;24.38;8.82;;;;;;;27.78;61.03;94074.53;5028930;28;20254;-81
2023/07/26 05:42:03;;;;;;;22.73;8.50;;;;;;;27.73;61.81;94072.03;4978610;28;20227;-81
2023/07/26 05:44:29;;;;;;;23.02;9.30;;;;;;;27.74;61.88;94084.38;5012866;28;20241;-81
2023/07/26 05:46:55;;;;;;;24.33;9.07;;;;;;;27.76;61.26;94084.03;4983796;28;20774;-82
2023/07/26 05:49:20;;;;;;;23.95;8.90;;;;;;;27.62;62.46;94086.19;5000862;28;20239;-81
2023/07/26 05:51:46;;;;;;;16.95;9.00;;;;;;;27.59;62.07;94057.25;5004301;28;20242;-81
2023/07/26 05:54:11;;;;;;;29.02;8.75;;;;;;;27.66;62.36;94074.47;5003942;28;20222;-82
2023/07/26 05:56:37;;;;;;;25.92;9.15;;;;;;;27.70;62.48;94067.34;4997736;28;20231;-82
2023/07/26 05:59:02;;;;;;;21.88;8.48;;;;;;;27.59;62.78;94059.94;5012880;28;20250;-79
2023/07/26 06:01:28;;;;;;;22.02;8.95;;;;;;;27.58;63.13;94061.88;5000688;28;20234;-81
2023/07/26 06:03:54;;;;;;;23.25;9.05;;;;;;;27.56;59.29;94060.63;5017047;28;20235;-81
2023/07/26 06:06:19;;;;;;;20.63;9.05;;;;;;;27.58;61.73;94067.25;4979462;28;20265;-79
2023/07/26 06:08:45;;;;;;;19.65;8.98;;;;;;;27.50;62.08;94064.59;4992278;28;20268;-78
2023/07/26 06:11:11;;;;;;;23.92;8.98;;;;;;;27.72;62.02;94070.47;5009680;28;20230;-80
2023/07/26 06:13:38;;;;;;;28.40;9.23;;;;;;;27.69;62.35;94070.34;5026878;28;20623;-78
2023/07/26 06:16:04;;;;;;;22.67;9.10;;;;;;;27.66;61.90;94066.38;5007216;28;20237;-79
2023/07/26 06:18:29;;;;;;;27.33;9.35;;;;;;;27.82;60.72;94075.44;5018100;28;20281;-78
2023/07/26 06:20:55;;;;;;;29.48;9.63;;;;;;;28.03;60.70;94075.50;5016122;28;20244;-79
2023/07/26 06:23:21;;;;;;;22.42;8.95;;;;;;;28.18;60.82;94072.22;5015862;28;20226;-77
2023/07/26 06:25:47;;;;;;;23.23;9.02;;;;;;;28.35;59.59;94085.50;4999434;28;20230;-78
2023/07/26 06:28:13;;;;;;;33.58;9.82;;;;;;;28.47;58.94;94057.81;5032768;28;20242;-81
2023/07/26 06:30:38;;;;;;;26.20;9.30;;;;;;;28.59;58.91;94056.00;5009497;28;20632;-80
2023/07/26 06:33:04;;;;;;;22.38;8.77;;;;;;;28.66;59.22;94056.22;5031884;28;20234;-77
2023/07/26 06:35:30;;;;;;;22.40;8.85;;;;;;;28.67;58.86;94060.50;4995239;28;20337;-77
2023/07/26 06:37:55;;;;;;;23.98;9.48;;;;;;;28.74;58.19;94065.34;5029706;28;20218;-76
2023/07/26 06:40:21;;;;;;;24.35;9.82;;;;;;;28.82;58.60;94042.13;4999170;28;20234;-78
2023/07/26 06:42:47;;;;;;;27.83;9.10;;;;;;;28.87;58.44;94034.63;5012649;28;20736;-78
2023/07/26 06:45:12;;;;;;;23.25;9.45;;;;;;;28.91;59.30;94043.59;5036424;28;20237;-79
2023/07/26 06:47:38;;;;;;;22.70;9.75;;;;;;;29.10;55.07;94043.84;5013737;28;20234;-78
2023/07/26 06:50:05;;;;;;;29.33;9.00;;;;;;;29.37;56.20;94042.41;5031201;28;20229;-79
2023/07/26 06:52:31;;;;;;;28.23;8.80;;;;;;;29.52;52.72;94059.81;5015415;28;20226;-79
2023/07/26 06:54:57;;;;;;;18.58;8.55;;;;;;;29.57;53.44;94063.03;5018417;28;20303;-80
2023/07/26 06:57:22;;;;;;;24.05;9.65;;;;;;;29.71;51.64;94062.72;5009364;28;20685;-79
2023/07/26 06:59:48;;;;;;;28.05;9.00;;;;;;;29.77;52.46;94059.47;5027182;28;20241;-79
2023/07/26 07:02:14;;;;;;;27.25;9.60;;;;;;;29.83;50.09;94062.72;4997000;28;20229;-79
2023/07/26 07:04:39;;;;;;;26.27;9.25;;;;;;;30.08;47.37;94045.31;5042065;28;20237;-79
2023/07/26 07:07:05;;;;;;;34.72;8.15;;;;;;;30.06;47.27;94047.56;5028614;28;20230;-80
2023/07/26 07:09:31;;;;;;;24.92;8.10;;;;;;;30.14;45.38;94062.81;4998111;28;20261;-81
2023/07/26 07:11:56;;;;;;;21.83;7.30;;;;;;;30.51;40.22;94048.09;5007924;28;20316;-80
2023/07/26 07:14:22;;;;;;;31.08;7.50;;;;;;;30.51;38.26;94048.09;5002413;28;20230;-81
2023/07/26 07:16:48;;;;;;;25.30;7.75;;;;;;;30.57;40.45;94065.59;5016513;28;20298;-81
2023/07/26 07:19:14;;;;;;;28.45;9.00;;;;;;;30.65;41.02;94053.06;5022348;28;20264;-80
2023/07/26 07:21:39;;;;;;;28.10;7.75;;;;;;;30.59;39.71;94054.47;4990894;28;20442;-81
2023/07/26 07:24:05;;;;;;;25.65;7.13;;;;;;;30.66;36.65;94054.66;4992636;28;20226;-79
2023/07/26 07:26:31;;;;;;;26.92;6.65;;;;;;;30.75;37.34;94046.38;5007247;28;20287;-80
2023/07/26 07:28:56;;;;;;;29.75;7.13;;;;;;;30.88;35.27;94062.16;5006015;28;20244;-81
2023/07/26 07:31:22;;;;;;;23.90;6.93;;;;;;;31.07;35.19;94054.19;4997386;28;20237;-79
2023/07/26 07:33:48;;;;;;;23.10;7.07;;;;;;;31.18;35.99;94063.34;4991859;28;20620;-82
2023/07/26 07:36:17;;;;;;;29.95;7.32;;;;;;;31.29;34.52;94069.78;4993489;28;20832;-80
2023/07/26 07:38:46;;;;;;;29.33;7.05;;;;;;;31.46;33.77;94065.19;4998855;28;20700;-80
2023/07/26 07:41:13;;;;;;;26.88;7.25;;;;;;;31.49;34.54;94072.59;5012174;28;20238;-81
2023/07/26 07:43:38;;;;;;;27.63;7.10;;;;;;;31.56;34.54;94070.84;5009532;28;20241;-82
2023/07/26 07:46:04;;;;;;;24.17;7.30;;;;;;;31.65;34.88;94067.94;4976314;28;20242;-81
2023/07/26 07:48:30;;;;;;;27.08;6.85;;;;;;;31.66;35.03;94080.34;5008868;28;20322;-80
2023/07/26 07:50:56;;;;;;;23.70;7.32;;;;;;;31.70;35.57;94068.47;5008956;28;20313;-79
2023/07/26 07:53:23;;;;;;;26.35;6.70;;;;;;;31.69;34.32;94080.41;4994143;28;20226;-80
2023/07/26 07:55:49;;;;;;;26.40;7.07;;;;;;;31.75;35.32;94075.53;4992453;28;20238;-83
2023/07/26 07:58:14;;;;;;;26.10;6.90;;;;;;;31.80;35.52;94073.34;4970219;28;20601;-83
2023/07/26 08:00:40;;;;;;;25.42;7.30;;;;;;;31.92;35.26;94083.25;4988931;28;20223;-81
2023/07/26 08:03:06;;;;;;;23.63;7.03;;;;;;;31.96;34.47;94078.69;4991428;28;20222;-81
2023/07/26 08:05:32;;;;;;;24.48;7.18;;;;;;;32.01;34.71;94073.03;5012426;28;20238;-83
2023/07/26 08:07:58;;;;;;;27.17;7.45;;;;;;;32.12;35.34;94093.03;4993965;28;20234;-82
2023/07/26 08:10:24;;;;;;;36.83;19.25;;;;;;;32.20;34.24;94078.47;5008513;28;20230;-82
2023/07/26 08:12:50;;;;;;;26.85;7.20;;;;;;;32.31;33.70;94078.69;4991705;28;20238;-82
2023/07/26 08:15:16;;;;;;;29.55;7.05;;;;;;;32.40;33.83;94092.81;4976381;28;20837;-78
2023/07/26 08:17:42;;;;;;;28.25;6.70;;;;;;;32.42;33.21;94068.84;4992133;28;20246;-80
2023/07/26 08:20:08;;;;;;;42.83;7.35;;;;;;;32.48;33.44;94072.84;5016173;28;20607;-82
2023/07/26 08:22:34;;;;;;;43.40;7.45;;;;;;;32.59;31.72;94073.84;4994251;28;20238;-80
2023/07/26 08:24:59;;;;;;;24.20;6.45;;;;;;;32.74;31.32;94085.75;5000604;28;20283;-79
2023/07/26 08:27:25;;;;;;;30.15;6.40;;;;;;;32.68;32.05;94071.69;4989473;28;20242;-80
2023/07/26 08:29:50;;;;;;;25.58;6.50;;;;;;;32.74;32.37;94066.78;5006831;28;20238;-79
2023/07/26 08:32:17;;;;;;;26.42;6.60;;;;;;;32.81;32.37;94062.28;4995113;28;20254;-81
2023/07/26 08:34:43;;;;;;;23.35;6.43;;;;;;;32.88;31.09;94054.25;4998384;28;20288;-82
2023/07/26 08:37:09;;;;;;;23.90;5.63;;;;;;;32.99;29.26;94057.94;5032080;28;20402;-81
2023/07/26 08:39:35;;;;;;;26.63;6.30;;;;;;;33.15;29.75;94063.28;5028269;28;20939;-82
2023/07/26 08:42:00;;;;;;;26.75;6.38;;;;;;;33.20;29.46;94080.03;5013719;28;20328;-84
2023/07/26 08:44:26;;;;;;;23.75;5.40;;;;;;;33.36;27.33;94062.84;4990077;28;20691;-84
2023/07/26 08:46:52;;;;;;;25.77;5.72;;;;;;;33.31;27.40;94055.00;4971376;28;20237;-86
2023/07/26 08:49:18;;;;;;;21.35;5.75;;;;;;;33.43;27.36;94060.22;5009187;28;20222;-84
2023/07/26 08:51:45;;;;;;;25.48;5.95;;;;;;;33.45;27.55;94055.22;5004179;28;20300;-82
2023/07/26 08:54:11;;;;;;;20.98;5.85;;;;;;;33.50;28.32;94065.78;5012354;28;20719;-80
2023/07/26 08:56:36;;;;;;;20.20;6.10;;;;;;;33.54;28.87;94053.84;4974031;28;20231;-82
2023/07/26 08:59:02;;;;;;;26.33;5.15;;;;;;;33.56;25.95;94067.84;4979365;28;20222;-82
2023/07/26 09:01:28;;;;;;;19.45;5.32;;;;;;;33.78;27.19;94056.16;4999480;28;20234;-83
2023/07/26 09:03:54;;;;;;;20.40;5.25;;;;;;;33.75;27.78;94067.72;5008323;28;20704;-81
2023/07/26 09:06:20;;;;;;;17.45;5.55;;;;;;;33.87;26.58;94072.16;5004112;28;20230;-81
2023/07/26 09:08:46;;;;;;;25.30;5.53;;;;;;;33.76;27.79;94080.19;4999355;28;20227;-82
2023/07/26 09:11:24;;;;;;;24.67;5.28;;;;;;;33.91;25.24;94070.31;5007633;28;20262;-80
2023/07/26 09:13:53;;;;;;;24.45;5.75;;;;;;;33.95;26.26;94068.41;5006163;28;21953;-83
2023/07/26 09:16:19;;;;;;;22.42;5.38;;;;;;;33.96;26.62;94075.41;5015952;28;20734;-82
2023/07/26 09:19:01;;;;;;;17.48;5.20;;;;;;;34.10;25.04;94072.91;4984322;28;20238;-81
2023/07/26 09:21:29;;;;;;;18.75;5.63;;;;;;;34.20;26.51;94069.53;4993679;28;20229;-80
2023/07/26 09:23:55;;;;;;;15.65;5.00;;;;;;;34.07;25.48;94072.84;5015429;28;20234;-82
2023/07/26 09:26:37;;;;;;;19.42;5.38;;;;;;;34.02;26.18;94065.78;4974451;28;21122;-82
2023/07/26 09:29:10;;;;;;;22.50;5.75;;;;;;;34.10;26.42;94077.56;4992720;28;21058;-81
2023/07/26 09:31:36;;;;;;;22.27;5.30;;;;;;;34.11;26.84;94077.19;4998302;28;20713;-82
2023/07/26 09:34:04;;;;;;;20.23;5.80;;;;;;;34.12;27.45;94075.25;5009210;28;20341;-83
2023/07/26 09:36:47;;;;;;;26.50;6.10;;;;;;;34.21;27.19;94087.41;4994063;28;20829;-82
2023/07/26 09:39:13;;;;;;;24.88;5.85;;;;;;;34.29;27.40;94069.28;4975121;28;20332;-83
2023/07/26 09:41:39;;;;;;;19.17;5.45;;;;;;;34.43;26.74;94072.94;5028060;28;20231;-83
2023/07/26 09:44:06;;;;;;;22.13;6.10;;;;;;;34.45;28.48;94078.78;4997109;28;20233;-79
2023/07/26 09:46:51;;;;;;;21.13;5.72;;;;;;;34.55;27.99;94090.97;5000866;28;20663;-82
2023/07/26 09:49:18;;;;;;;23.95;6.00;;;;;;;34.55;28.20;94085.53;5005437;28;20234;-82
2023/07/26 09:51:44;;;;;;;23.55;5.93;;;;;;;34.36;28.23;94074.78;5000189;28;20274;-81
2023/07/26 09:54:10;;;;;;;25.15;6.00;;;;;;;34.47;27.89;94078.41;5024351;28;20304;-82
2023/07/26 09:56:37;;;;;;;21.52;6.00;;;;;;;34.58;28.17;94067.72;4999729;28;20230;-82
2023/07/26 09:59:03;;;;;;;25.90;6.55;;;;;;;34.57;27.88;94077.78;4998848;28;20258;-84
2023/07/26 10:01:29;;;;;;;19.83;6.03;;;;;;;34.66;27.66;94075.56;5000223;28;20274;-83
2023/07/26 10:03:56;;;;;;;23.92;5.82;;;;;;;34.61;28.13;94065.00;4993825;28;20223;-84
2023/07/26 10:06:22;;;;;;;18.92;5.60;;;;;;;34.72;28.40;94057.78;4989098;28;20752;-84
2023/07/26 10:08:48;;;;;;;25.27;5.80;;;;;;;34.97;28.76;94071.59;4995712;28;20238;-81
2023/07/26 10:11:14;;;;;;;29.80;6.80;;;;;;;35.00;27.70;94062.69;4993735;28;20711;-83
2023/07/26 10:13:40;;;;;;;25.00;6.53;;;;;;;34.99;28.59;94050.28;4995599;28;20227;-83
2023/07/26 10:16:06;;;;;;;21.77;6.07;;;;;;;35.11;27.97;94060.88;4994241;28;20241;-83
2023/07/26 10:18:33;;;;;;;18.58;5.68;;;;;;;35.05;27.73;94049.56;4999157;28;20239;-82
2023/07/26 10:20:59;;;;;;;22.48;6.10;;;;;;;35.09;28.87;94052.31;4974366;28;21182;-82
2023/07/26 10:23:24;;;;;;;19.45;5.60;;;;;;;34.78;28.53;94047.31;4998071;28;20372;-82
2023/07/26 10:25:50;;;;;;;17.88;5.60;;;;;;;34.67;28.92;94047.22;4994188;28;20246;-83
2023/07/26 10:28:16;;;;;;;19.20;6.03;;;;;;;34.90;27.73;94056.00;4999111;28;20241;-84
2023/07/26 10:30:41;;;;;;;22.52;5.75;;;;;;;34.91;27.16;94057.56;4996697;28;20230;-82
2023/07/26 10:33:13;;;;;;;20.92;6.07;;;;;;;35.04;27.50;94048.00;5011363;28;20226;-84
2023/07/26 10:35:40;;;;;;;26.85;6.43;;;;;;;35.26;27.41;94054.41;5001507;28;20258;-83
2023/07/26 10:38:06;;;;;;;18.30;5.57;;;;;;;35.22;27.14;94039.22;5006932;28;20223;-85
2023/07/26 10:40:36;;;;;;;20.15;5.90;;;;;;;35.25;27.24;94060.25;5009455;28;20285;-82
2023/07/26 10:43:38;;;;;;;19.35;5.70;;;;;;;35.32;25.06;94050.19;5006067;28;20242;-82
2023/07/26 10:46:08;;;;;;;16.85;4.80;;;;;;;35.44;25.33;94054.56;4995736;28;20230;-83
2023/07/26 10:48:38;;;;;;;15.05;5.13;;;;;;;35.52;24.67;94048.81;5029027;28;20621;-81
2023/07/26 10:51:31;;;;;;;16.63;5.07;;;;;;;35.43;24.84;94032.00;5003801;28;20270;-82
2023/07/26 10:54:00;;;;;;;20.45;5.57;;;;;;;35.53;25.53;94041.44;5010308;28;20275;-81
2023/07/26 10:56:36;;;;;;;15.75;5.00;;;;;;;35.44;25.82;94033.56;4970722;28;20292;-83
2023/07/26 10:59:04;;;;;;;22.02;5.70;;;;;;;35.57;25.20;94037.56;4992911;28;20238;-83
2023/07/26 11:01:36;;;;;;;21.17;5.30;;;;;;;35.51;25.13;94027.41;5013111;28;20237;-85
2023/07/26 11:04:02;;;;;;;21.88;5.85;;;;;;;35.46;25.51;94025.81;5008963;28;20257;-81
2023/07/26 11:06:50;;;;;;;19.48;5.30;;;;;;;35.43;25.32;94020.31;4994134;28;20234;-81
2023/07/26 11:09:25;;;;;;;16.52;4.88;;;;;;;35.34;25.22;94028.03;5007314;28;20238;-83
2023/07/26 11:12:01;;;;;;;21.73;5.63;;;;;;;35.34;26.13;94023.38;4983719;28;20298;-81
2023/07/26 11:14:32;;;;;;;20.88;5.35;;;;;;;35.38;25.90;94032.34;4996473;28;20233;-81
2023/07/26 11:17:00;;;;;;;20.92;5.20;;;;;;;35.32;25.38;94027.63;4994268;28;20234;-82
2023/07/26 11:19:27;;;;;;;22.38;5.78;;;;;;;35.19;25.83;94022.47;4976593;28;20247;-83
2023/07/26 11:22:04;;;;;;;18.67;5.53;;;;;;;35.41;26.18;94025.38;5007938;28;20243;-84
2023/07/26 11:24:30;;;;;;;20.77;5.07;;;;;;;35.43;25.92;94017.59;5008383;28;20279;-82